createdAt,value
2023-05-20T00:01:57.506Z,7.93
2023-05-20T00:04:27.347Z,7.20
2023-05-20T00:06:56.219Z,7.10
2023-05-20T00:09:24.900Z,8.80
2023-05-20T00:11:53.354Z,9.23
2023-05-20T00:14:21.742Z,8.83
2023-05-20T00:16:51.152Z,8.27
2023-05-20T00:19:19.708Z,8.23
2023-05-20T00:21:49.661Z,7.50
2023-05-20T00:24:18.113Z,9.93
2023-05-20T00:26:46.606Z,6.13
2023-05-20T00:29:15.127Z,7.57
2023-05-20T00:31:43.721Z,6.07
2023-05-20T00:34:12.264Z,5.70
2023-05-20T00:36:40.676Z,9.27
2023-05-20T00:39:10.563Z,11.37
2023-05-20T00:41:39.159Z,8.00
2023-05-20T00:44:12.834Z,7.13
2023-05-20T00:46:41.316Z,8.87
2023-05-20T00:49:10.209Z,7.97
2023-05-20T00:51:39.907Z,7.37
2023-05-20T00:54:10.109Z,6.63
2023-05-20T00:56:39.054Z,7.10
2023-05-20T00:59:09.162Z,9.37
2023-05-20T01:01:37.681Z,10.70
2023-05-20T01:04:06.432Z,7.33
2023-05-20T01:06:34.881Z,7.33
2023-05-20T01:09:03.863Z,10.50
2023-05-20T01:11:36.337Z,8.00
2023-05-20T01:14:08.467Z,8.40
2023-05-20T01:16:37.620Z,8.20
2023-05-20T01:19:08.920Z,5.80
2023-05-20T01:21:37.620Z,9.23
2023-05-20T01:24:08.398Z,6.30
2023-05-20T01:26:38.496Z,6.93
2023-05-20T01:29:06.982Z,13.17
2023-05-20T01:31:39.300Z,7.33
2023-05-20T01:34:08.182Z,7.77
2023-05-20T01:36:36.875Z,7.57
2023-05-20T01:39:07.030Z,6.60
2023-05-20T01:41:37.357Z,8.63
2023-05-20T01:44:06.022Z,8.40
2023-05-20T01:46:34.984Z,8.33
2023-05-20T01:49:04.356Z,7.07
2023-05-20T01:51:35.170Z,6.27
2023-05-20T01:54:04.768Z,9.30
2023-05-20T01:56:34.581Z,6.83
2023-05-20T01:59:03.312Z,7.83
2023-05-20T02:01:31.876Z,8.60
2023-05-20T02:04:00.350Z,7.83
2023-05-20T02:06:28.820Z,7.57
2023-05-20T02:08:57.337Z,6.83
2023-05-20T02:11:26.274Z,7.83
2023-05-20T02:13:57.616Z,6.53
2023-05-20T02:16:26.440Z,8.13
2023-05-20T02:18:55.181Z,6.10
2023-05-20T02:21:24.441Z,8.60
2023-05-20T02:23:53.156Z,8.17
2023-05-20T02:26:22.765Z,7.83
2023-05-20T02:28:51.769Z,8.37
2023-05-20T02:31:24.421Z,8.07
2023-05-20T02:33:52.943Z,8.07
2023-05-20T02:36:21.524Z,7.60
2023-05-20T02:38:51.146Z,7.87
2023-05-20T02:41:19.902Z,10.70
2023-05-20T02:43:49.026Z,7.83
2023-05-20T02:46:18.748Z,9.23
2023-05-20T02:48:48.732Z,10.67
2023-05-20T02:51:17.266Z,9.87
2023-05-20T02:53:45.868Z,11.73
2023-05-20T02:56:14.404Z,9.53
2023-05-20T02:58:44.491Z,8.20
2023-05-20T03:01:14.156Z,9.87
2023-05-20T03:03:42.710Z,8.77
2023-05-20T03:06:12.632Z,10.87
2023-05-20T03:08:42.890Z,8.03
2023-05-20T03:11:11.464Z,9.93
2023-05-20T03:13:39.997Z,8.90
2023-05-20T03:16:08.620Z,9.47
2023-05-20T03:18:37.127Z,9.57
2023-05-20T03:21:06.775Z,8.93
2023-05-20T03:23:36.579Z,9.73
2023-05-20T03:26:06.832Z,8.07
2023-05-20T03:28:35.624Z,14.40
2023-05-20T03:31:04.596Z,11.17
2023-05-20T03:33:35.522Z,10.27
2023-05-20T03:36:05.328Z,10.57
2023-05-20T03:38:34.236Z,8.67
2023-05-20T03:41:04.412Z,12.20
2023-05-20T03:43:34.576Z,10.53
2023-05-20T03:46:03.092Z,12.37
2023-05-20T03:48:31.557Z,10.87
2023-05-20T03:51:00.062Z,14.20
2023-05-20T03:53:28.793Z,12.67
2023-05-20T03:55:57.377Z,16.17
2023-05-20T03:58:31.312Z,10.53
2023-05-20T04:00:59.813Z,10.17
2023-05-20T04:03:29.184Z,12.17
2023-05-20T04:05:57.724Z,10.70
2023-05-20T04:08:27.010Z,13.93
2023-05-20T04:10:57.759Z,11.50
2023-05-20T04:13:28.155Z,12.67
2023-05-20T04:15:56.613Z,10.40
2023-05-20T04:18:25.903Z,11.80
2023-05-20T04:20:56.624Z,11.07
2023-05-20T04:23:25.477Z,11.20
2023-05-20T04:25:55.928Z,12.83
2023-05-20T04:28:28.324Z,10.83
2023-05-20T04:31:02.833Z,11.70
2023-05-20T04:33:33.000Z,13.17
2023-05-20T04:36:03.205Z,11.70
2023-05-20T04:38:34.843Z,12.33
2023-05-20T04:41:03.972Z,11.23
2023-05-20T04:43:33.960Z,11.20
2023-05-20T04:46:06.058Z,14.13
2023-05-20T04:48:35.984Z,14.10
2023-05-20T04:51:04.473Z,11.43
2023-05-20T04:53:34.071Z,12.67
2023-05-20T04:56:03.529Z,12.43
2023-05-20T04:58:33.532Z,15.77
2023-05-20T05:01:04.035Z,12.40
2023-05-20T05:03:32.519Z,12.37
2023-05-20T05:06:01.306Z,11.93
2023-05-20T05:08:30.281Z,13.73
2023-05-20T05:10:59.907Z,12.83
2023-05-20T05:13:28.484Z,13.67
2023-05-20T05:16:00.608Z,14.20
2023-05-20T05:18:32.621Z,12.43
2023-05-20T05:21:01.832Z,12.97
2023-05-20T05:23:30.370Z,13.90
2023-05-20T05:25:59.082Z,17.03
2023-05-20T05:28:29.991Z,16.30
2023-05-20T05:30:59.352Z,17.93
2023-05-20T05:33:28.642Z,19.57
2023-05-20T05:36:01.251Z,17.87
2023-05-20T05:38:29.755Z,20.23
2023-05-20T05:40:58.206Z,18.67
2023-05-20T05:43:26.658Z,19.77
2023-05-20T05:45:55.229Z,22.50
2023-05-20T05:48:23.867Z,22.60
2023-05-20T05:50:52.726Z,22.00
2023-05-20T05:53:25.198Z,20.97
2023-05-20T05:55:53.952Z,24.20
2023-05-20T05:58:22.403Z,25.13
2023-05-20T06:00:54.916Z,22.87
2023-05-20T06:03:24.093Z,26.53
2023-05-20T06:05:54.992Z,23.80
2023-05-20T06:08:24.835Z,22.70
2023-05-20T06:10:53.399Z,21.27
2023-05-20T06:13:22.281Z,25.13
2023-05-20T06:15:51.473Z,24.03
2023-05-20T06:18:20.042Z,22.30
2023-05-20T06:20:48.977Z,21.73
2023-05-20T06:23:17.588Z,20.83
2023-05-20T06:26:01.461Z,21.97
2023-05-20T06:28:32.449Z,23.07
2023-05-20T06:31:01.258Z,22.57
2023-05-20T06:33:33.535Z,23.07
2023-05-20T06:36:07.676Z,22.87
2023-05-20T06:38:36.138Z,21.43
2023-05-20T06:41:06.688Z,19.20
2023-05-20T06:43:35.582Z,19.33
2023-05-20T06:46:12.215Z,20.83
2023-05-20T06:48:46.558Z,18.60
2023-05-20T06:54:11.050Z,22.33
2023-05-20T06:56:41.186Z,17.77
2023-05-20T06:59:09.912Z,17.43
2023-05-20T07:01:39.670Z,20.17
2023-05-20T07:04:09.029Z,19.43
2023-05-20T07:06:38.021Z,21.00
2023-05-20T07:11:55.909Z,20.17
2023-05-20T07:14:25.209Z,17.03
2023-05-20T07:16:54.078Z,16.10
2023-05-20T07:19:23.400Z,19.67
2023-05-20T07:21:52.590Z,19.07
2023-05-20T07:24:38.278Z,17.30
2023-05-20T07:27:09.856Z,21.00
2023-05-20T07:29:38.723Z,19.13
2023-05-20T07:32:08.536Z,16.53
2023-05-20T07:34:37.501Z,16.63
2023-05-20T07:37:06.295Z,17.73
2023-05-20T07:39:34.918Z,19.20
2023-05-20T07:42:03.797Z,18.40
2023-05-20T07:47:43.660Z,16.30
2023-05-20T07:50:13.725Z,16.03
2023-05-20T07:52:56.123Z,17.63
2023-05-20T07:55:29.006Z,17.77
2023-05-20T07:57:58.665Z,16.80
2023-05-20T08:00:27.590Z,14.10
2023-05-20T08:02:57.661Z,16.70
2023-05-20T08:05:33.599Z,19.10
2023-05-20T08:08:05.058Z,14.17
2023-05-20T08:10:44.321Z,13.57
2023-05-20T08:13:15.246Z,16.00
2023-05-20T08:15:44.147Z,14.33
2023-05-20T08:18:17.208Z,15.20
2023-05-20T08:20:45.869Z,15.67
2023-05-20T08:23:14.733Z,13.43
2023-05-20T08:25:46.952Z,13.83
2023-05-20T08:28:15.921Z,18.63
2023-05-20T08:30:44.569Z,15.23
2023-05-20T08:33:14.824Z,16.70
2023-05-20T08:35:43.509Z,13.43
2023-05-20T08:38:12.272Z,13.93
2023-05-20T08:40:41.162Z,13.10
2023-05-20T08:43:11.533Z,13.95
2023-05-20T08:45:40.740Z,13.50
2023-05-20T08:48:21.871Z,12.93
2023-05-20T08:50:52.463Z,13.77
2023-05-20T08:53:22.783Z,12.80
2023-05-20T08:55:55.447Z,11.65
2023-05-20T08:58:24.671Z,11.85
2023-05-20T09:00:53.872Z,10.60
2023-05-20T09:03:25.747Z,12.05
2023-05-20T09:05:55.736Z,9.98
2023-05-20T09:08:27.474Z,13.00
2023-05-20T09:10:56.210Z,9.32
2023-05-20T09:13:26.541Z,9.95
2023-05-20T09:15:55.596Z,12.45
2023-05-20T09:18:28.068Z,10.23
2023-05-20T09:20:56.804Z,10.52
2023-05-20T09:23:27.958Z,13.32
2023-05-20T09:25:56.599Z,11.77
2023-05-20T09:28:27.009Z,11.20
2023-05-20T09:30:59.646Z,11.18
2023-05-20T09:33:32.087Z,11.38
2023-05-20T09:36:05.759Z,10.77
2023-05-20T09:38:40.381Z,13.20
2023-05-20T09:41:10.069Z,13.48
2023-05-20T09:43:40.000Z,12.93
2023-05-20T09:46:09.333Z,11.23
2023-05-20T09:48:40.002Z,9.85
2023-05-20T09:51:09.445Z,10.23
2023-05-20T09:53:38.158Z,10.77
2023-05-20T09:56:07.036Z,8.80
2023-05-20T09:58:37.845Z,11.27
2023-05-20T10:01:08.095Z,10.10
2023-05-20T10:03:37.237Z,9.95
2023-05-20T10:06:20.541Z,9.93
2023-05-20T10:09:00.005Z,10.98
2023-05-20T10:11:32.442Z,10.48
2023-05-20T10:14:07.502Z,9.05
2023-05-20T10:16:41.963Z,7.53
2023-05-20T10:19:16.332Z,7.47
2023-05-20T10:21:46.144Z,12.30
2023-05-20T10:24:15.991Z,8.65
2023-05-20T10:26:44.609Z,8.02
2023-05-20T10:29:18.397Z,7.03
2023-05-20T10:31:47.036Z,10.70
2023-05-20T10:34:18.077Z,7.00
2023-05-20T10:36:59.377Z,7.97
2023-05-20T10:39:31.483Z,7.53
2023-05-20T10:42:09.838Z,10.02
2023-05-20T10:44:44.994Z,8.90
2023-05-20T10:49:46.668Z,9.27
2023-05-20T10:52:17.389Z,7.18
2023-05-20T10:54:47.343Z,8.10
2023-05-20T10:57:17.198Z,9.55
2023-05-20T10:59:47.477Z,7.75
2023-05-20T11:02:18.070Z,6.63
2023-05-20T11:04:47.279Z,8.77
2023-05-20T11:07:29.225Z,8.63
2023-05-20T11:10:00.361Z,11.32
2023-05-20T11:12:30.157Z,10.35
2023-05-20T11:14:59.050Z,7.75
2023-05-20T11:17:27.973Z,8.57
2023-05-20T11:19:56.838Z,8.20
2023-05-20T11:22:26.781Z,6.55
2023-05-20T11:24:55.435Z,7.07
2023-05-20T11:27:23.932Z,10.00
2023-05-20T11:29:53.073Z,6.15
2023-05-20T11:32:22.075Z,8.48
2023-05-20T11:34:54.048Z,7.63
2023-05-20T11:37:26.900Z,7.90
2023-05-20T11:40:09.694Z,7.75
2023-05-20T11:42:39.616Z,5.68
2023-05-20T11:45:15.327Z,8.00
2023-05-20T11:47:44.276Z,6.38
2023-05-20T11:50:14.461Z,5.35
2023-05-20T11:52:43.050Z,7.28
2023-05-20T11:55:16.742Z,5.97
2023-05-20T11:57:46.320Z,6.38
2023-05-20T12:00:15.541Z,8.13
2023-05-20T12:02:44.142Z,5.57
2023-05-20T12:05:13.732Z,5.35
2023-05-20T12:07:44.793Z,5.75
2023-05-20T12:10:15.339Z,5.18
2023-05-20T12:12:46.563Z,5.70
2023-05-20T12:15:15.533Z,6.95
2023-05-20T12:17:48.602Z,6.57
2023-05-20T12:20:18.998Z,4.40
2023-05-20T12:22:48.103Z,6.00
2023-05-20T12:25:19.483Z,5.65
2023-05-20T12:27:48.554Z,7.00
2023-05-20T12:30:17.981Z,7.40
2023-05-20T12:32:47.040Z,7.63
2023-05-20T12:35:15.679Z,5.78
2023-05-20T12:37:44.830Z,6.40
2023-05-20T12:40:14.012Z,6.38
2023-05-20T12:42:49.340Z,6.97
2023-05-20T12:45:18.394Z,7.20
2023-05-20T12:47:46.894Z,8.30
2023-05-20T12:50:15.699Z,8.38
2023-05-20T12:52:44.426Z,7.50
2023-05-20T12:55:13.810Z,6.90
2023-05-20T12:57:46.679Z,4.78
2023-05-20T13:00:15.614Z,6.32
2023-05-20T13:02:45.789Z,5.72
2023-05-20T13:05:16.363Z,8.23
2023-05-20T13:07:44.942Z,6.70
2023-05-20T13:10:14.194Z,8.80
2023-05-20T13:12:45.973Z,8.18
2023-05-20T13:15:16.269Z,7.93
2023-05-20T13:17:47.542Z,5.80
2023-05-20T13:20:19.166Z,5.97
2023-05-20T13:22:50.296Z,5.40
2023-05-20T13:25:19.264Z,7.53
2023-05-20T13:27:47.725Z,9.23
2023-05-20T13:30:17.521Z,5.55
2023-05-20T13:32:46.335Z,6.72
2023-05-20T13:35:16.808Z,5.30
2023-05-20T13:37:45.686Z,5.72
2023-05-20T13:40:14.659Z,4.88
2023-05-20T13:42:44.194Z,6.07
2023-05-20T13:45:13.354Z,7.65
2023-05-20T13:47:43.710Z,7.38
2023-05-20T13:50:13.052Z,5.47
2023-05-20T13:52:41.904Z,7.63
2023-05-20T13:55:12.075Z,9.77
2023-05-20T13:57:40.870Z,8.65
2023-05-20T14:00:18.835Z,6.18
2023-05-20T14:02:51.698Z,7.30
2023-05-20T14:05:21.227Z,8.27
2023-05-20T14:07:49.677Z,7.80
2023-05-20T14:10:18.189Z,9.25
2023-05-20T14:12:48.253Z,9.82
2023-05-20T14:15:16.850Z,9.23
2023-05-20T14:17:45.389Z,9.07
2023-05-20T14:20:15.509Z,8.55
2023-05-20T14:22:44.110Z,7.60
2023-05-20T14:25:14.581Z,7.18
2023-05-20T14:27:43.070Z,9.88
2023-05-20T14:30:11.990Z,8.23
2023-05-20T14:32:40.795Z,8.68
2023-05-20T14:35:09.765Z,8.13
2023-05-20T14:37:39.698Z,8.68
2023-05-20T14:40:08.787Z,10.52
2023-05-20T14:42:38.310Z,9.57
2023-05-20T14:45:07.462Z,9.15
2023-05-20T14:47:36.099Z,7.95
2023-05-20T14:50:04.644Z,8.40
2023-05-20T14:52:33.093Z,9.07
2023-05-20T14:55:03.154Z,9.95
2023-05-20T14:57:31.946Z,10.65
2023-05-20T15:00:00.433Z,12.20
2023-05-20T15:02:30.289Z,12.60
2023-05-20T15:04:58.722Z,9.63
2023-05-20T15:07:27.939Z,10.30
2023-05-20T15:09:56.417Z,9.68
2023-05-20T15:12:26.784Z,8.63
2023-05-20T15:14:55.187Z,9.75
2023-05-20T15:17:23.773Z,10.20
2023-05-20T15:19:52.474Z,10.82
2023-05-20T15:22:20.832Z,11.10
2023-05-20T15:24:49.179Z,9.25
2023-05-20T15:27:17.549Z,7.28
2023-05-20T15:29:48.873Z,8.60
2023-05-20T15:32:19.852Z,9.25
2023-05-20T15:34:48.400Z,7.55
2023-05-20T15:37:17.159Z,7.18
2023-05-20T15:39:45.910Z,11.85
2023-05-20T15:42:18.737Z,10.32
2023-05-20T15:44:48.650Z,8.82
2023-05-20T15:47:18.380Z,11.45
2023-05-20T15:49:47.432Z,11.18
2023-05-20T15:52:17.246Z,9.88
2023-05-20T15:54:45.881Z,10.90
2023-05-20T15:57:14.327Z,11.20
2023-05-20T15:59:42.823Z,13.80
2023-05-20T16:02:14.939Z,11.10
2023-05-20T16:04:43.426Z,9.50
2023-05-20T16:07:12.963Z,12.13
2023-05-20T16:09:42.794Z,10.02
2023-05-20T16:12:12.326Z,10.05
2023-05-20T16:14:40.977Z,12.32
2023-05-20T16:17:13.020Z,13.50
2023-05-20T16:19:41.526Z,13.38
2023-05-20T16:22:10.380Z,9.75
2023-05-20T16:24:39.966Z,9.05
2023-05-20T16:27:09.129Z,11.63
2023-05-20T16:29:40.378Z,17.20
2023-05-20T16:32:09.188Z,12.32
2023-05-20T16:34:40.903Z,12.43
2023-05-20T16:37:10.245Z,16.15
2023-05-20T16:39:40.080Z,16.70
2023-05-20T16:42:09.200Z,15.30
2023-05-20T16:44:39.619Z,12.38
2023-05-20T16:47:08.839Z,17.67
2023-05-20T16:49:40.600Z,12.63
2023-05-20T16:52:09.240Z,12.23
2023-05-20T16:54:38.142Z,17.52
2023-05-20T16:57:07.746Z,14.85
2023-05-20T16:59:36.180Z,12.77
2023-05-20T17:02:04.587Z,13.45
2023-05-20T17:04:35.138Z,12.73
2023-05-20T17:07:09.912Z,14.80
2023-05-20T17:09:38.374Z,12.00
2023-05-20T17:12:07.164Z,11.18
2023-05-20T17:14:35.869Z,14.77
2023-05-20T17:17:05.996Z,14.30
2023-05-20T17:19:34.554Z,12.07
2023-05-20T17:22:03.536Z,11.05
2023-05-20T17:24:35.280Z,12.52
2023-05-20T17:27:06.057Z,12.00
2023-05-20T17:29:34.612Z,15.57
2023-05-20T17:32:03.660Z,14.32
2023-05-20T17:34:33.074Z,14.57
2023-05-20T17:37:02.713Z,19.58
2023-05-20T17:39:31.364Z,11.55
2023-05-20T17:42:01.917Z,14.80
2023-05-20T17:44:31.968Z,13.57
2023-05-20T17:47:00.510Z,14.70
2023-05-20T17:49:29.069Z,17.25
2023-05-20T17:51:59.099Z,15.07
2023-05-20T17:54:29.804Z,11.07
2023-05-20T17:57:01.505Z,12.90
2023-05-20T17:59:30.056Z,11.35
2023-05-20T18:01:58.921Z,12.73
2023-05-20T18:04:36.433Z,13.55
2023-05-20T18:07:05.573Z,14.65
2023-05-20T18:09:34.193Z,16.70
2023-05-20T18:12:04.186Z,13.45
2023-05-20T18:14:32.948Z,13.45
2023-05-20T18:17:01.424Z,11.07
2023-05-20T18:19:29.997Z,11.35
2023-05-20T18:21:58.791Z,14.57
2023-05-20T18:24:28.020Z,12.23
2023-05-20T18:26:56.463Z,11.77
2023-05-20T18:29:27.656Z,13.32
2023-05-20T18:31:56.244Z,12.90
2023-05-20T18:34:24.889Z,14.48
2023-05-20T18:36:54.225Z,13.88
2023-05-20T18:39:23.751Z,12.68
2023-05-20T18:41:52.557Z,11.60
2023-05-20T18:44:21.079Z,14.75
2023-05-20T18:46:51.941Z,13.80
2023-05-20T18:49:20.821Z,15.02
2023-05-20T18:51:49.801Z,11.73
2023-05-20T18:54:18.453Z,12.43
2023-05-20T18:56:51.521Z,13.57
2023-05-20T18:59:21.915Z,13.80
2023-05-20T19:01:53.157Z,13.15
2023-05-20T19:04:21.933Z,12.45
2023-05-20T19:06:50.814Z,12.23
2023-05-20T19:09:19.403Z,13.75
2023-05-20T19:11:56.862Z,16.77
2023-05-20T19:14:25.793Z,16.40
2023-05-20T19:16:58.672Z,19.25
2023-05-20T19:19:27.454Z,13.90
2023-05-20T19:21:56.157Z,12.50
2023-05-20T19:24:25.304Z,16.75
2023-05-20T19:26:53.829Z,17.45
2023-05-20T19:29:22.353Z,14.10
2023-05-20T19:31:51.235Z,15.13
2023-05-20T19:34:25.125Z,12.77
2023-05-20T19:36:53.899Z,12.82
2023-05-20T19:39:22.532Z,12.50
2023-05-20T19:41:52.993Z,16.45
2023-05-20T19:44:21.477Z,14.90
2023-05-20T19:46:50.192Z,16.27
2023-05-20T19:49:18.955Z,17.10
2023-05-20T19:51:49.009Z,16.42
2023-05-20T19:54:17.703Z,17.20
2023-05-20T19:56:46.208Z,14.25
2023-05-20T20:02:12.214Z,15.82
2023-05-20T20:04:42.323Z,18.80
2023-05-20T20:07:14.595Z,15.32
2023-05-20T20:09:45.232Z,15.65
2023-05-20T20:12:17.341Z,16.35
2023-05-20T20:14:47.180Z,17.70
2023-05-20T20:17:19.605Z,17.98
2023-05-20T20:19:49.231Z,18.38
2023-05-20T20:22:21.675Z,25.23
2023-05-20T20:24:51.306Z,17.35
2023-05-20T20:27:20.555Z,17.95
2023-05-20T20:29:49.028Z,19.55
2023-05-20T20:32:18.003Z,17.15
2023-05-20T20:34:46.798Z,17.08
2023-05-20T20:37:19.592Z,18.77
2023-05-20T20:39:50.075Z,19.80
2023-05-20T20:42:18.898Z,18.58
2023-05-20T20:44:48.491Z,17.92
2023-05-20T20:47:17.259Z,20.27
2023-05-20T20:49:46.080Z,21.02
2023-05-20T20:52:14.795Z,23.35
2023-05-20T21:00:40.215Z,22.13
2023-05-20T21:03:09.981Z,19.95
2023-05-20T21:05:39.731Z,19.98
2023-05-20T21:14:06.661Z,22.33
2023-05-20T21:16:50.610Z,19.73
2023-05-20T21:19:19.250Z,21.38
2023-05-20T21:21:48.013Z,21.95
2023-05-20T21:24:16.794Z,21.90
2023-05-20T21:26:45.251Z,22.60
2023-05-20T21:29:13.756Z,21.20
2023-05-20T21:32:06.030Z,22.20
2023-05-20T21:34:37.065Z,18.38
2023-05-20T21:37:05.630Z,25.08
2023-05-20T21:39:34.372Z,20.95
2023-05-20T21:42:02.886Z,20.65
2023-05-20T21:44:31.304Z,21.73
2023-05-20T21:46:59.717Z,23.65
2023-05-20T21:52:14.214Z,21.90
2023-05-20T21:54:42.600Z,21.08
2023-05-20T21:57:11.621Z,21.40
2023-05-20T21:59:40.344Z,24.13
2023-05-20T22:02:09.032Z,21.45
2023-05-20T22:04:38.140Z,27.75
2023-05-20T22:07:07.757Z,23.38
2023-05-20T22:09:40.022Z,22.15
2023-05-20T22:12:11.413Z,20.85
2023-05-20T22:14:41.446Z,22.58
2023-05-20T22:17:10.599Z,18.02
2023-05-20T22:19:40.534Z,22.30
2023-05-20T22:22:09.611Z,21.92
2023-05-20T22:27:28.471Z,21.60
2023-05-20T22:29:56.884Z,19.38
2023-05-20T22:32:25.394Z,21.08
2023-05-20T22:34:58.577Z,23.73
2023-05-20T22:37:28.808Z,19.85
2023-05-20T22:39:57.384Z,20.92
2023-05-20T22:42:26.224Z,24.10
2023-05-20T22:44:56.278Z,22.45
2023-05-20T22:47:24.712Z,23.27
2023-05-20T22:49:53.291Z,22.30
2023-05-20T22:52:25.409Z,25.42
2023-05-20T22:54:54.430Z,23.50
2023-05-20T22:57:22.882Z,23.83
2023-05-20T22:59:52.101Z,23.85
2023-05-20T23:02:23.154Z,23.27
2023-05-20T23:04:51.822Z,23.02
2023-05-20T23:07:20.625Z,23.73
2023-05-20T23:09:49.410Z,25.17
2023-05-20T23:12:19.283Z,21.83
2023-05-20T23:14:52.028Z,23.70
2023-05-20T23:17:27.375Z,24.80
2023-05-20T23:19:55.912Z,22.10
2023-05-20T23:22:47.914Z,21.60
2023-05-20T23:31:10.415Z,23.63
2023-05-20T23:33:42.448Z,23.67
2023-05-20T23:36:12.611Z,24.60
2023-05-20T23:38:43.274Z,18.40
2023-05-20T23:41:11.630Z,21.08
2023-05-20T23:43:40.038Z,20.50
2023-05-20T23:46:09.541Z,21.23
2023-05-20T23:48:38.043Z,19.05
2023-05-20T23:51:10.555Z,19.05
2023-05-20T23:53:39.341Z,20.95
2023-05-20T23:56:08.543Z,26.35
2023-05-20T23:58:37.239Z,18.90
